This is the latest recevied weather packets stored in our database for station/object K9TLD. If no packets are shown the sender has not sent any weather packets the latest 1 day(s).
| Time | Temp. | Humidity | Pressure | Rain* | Wind** | Luminosity | Snow |
|---|---|---|---|---|---|---|---|
| 1778026494 | 11.67° C | 39% | 1010.6 hPa | 0 mm | 0.45 m/s, 229° | 29 W/m² | - |
| 1778026192 | 12.22° C | 38% | 1010.8 hPa | 0 mm | 0.45 m/s, 215° | 31 W/m² | - |
| 1778025889 | 12.22° C | 38% | 1010.6 hPa | 0 mm | 0 m/s | 37 W/m² | - |
| 1778025586 | 12.78° C | 38% | 1010.6 hPa | 0 mm | 0.45 m/s, 230° | 50 W/m² | - |
| 1778025284 | 12.78° C | 36% | 1010.6 hPa | 0 mm | 0.45 m/s, 237° | 53 W/m² | - |
| 1778024981 | 12.78° C | 36% | 1010.4 hPa | 0 mm | 0.89 m/s, 263° | 78 W/m² | - |
| 1778024678 | 12.78° C | 37% | 1010.3 hPa | 0 mm | 0 m/s | 59 W/m² | - |
| 1778024375 | 13.33° C | 37% | 1010.4 hPa | 0 mm | 1.79 m/s, 240° | 61 W/m² | - |
| 1778024073 | 13.89° C | 35% | 1010.2 hPa | 0 mm | 0.45 m/s, 230° | 83 W/m² | - |
| 1778023770 | 13.89° C | 35% | 1010.3 hPa | 0 mm | 0 m/s | 75 W/m² | - |
| 1778023468 | 13.89° C | 34% | 1010.3 hPa | 0 mm | 1.79 m/s, 245° | 110 W/m² | - |
| 1778023164 | 13.33° C | 35% | 1010.2 hPa | 0 mm | 0.45 m/s, 230° | 79 W/m² | - |
| 1778022862 | 13.33° C | 36% | 1010.2 hPa | 0 mm | 0.89 m/s, 235° | 91 W/m² | - |
| 1778022560 | 14.44° C | 35% | 1010.2 hPa | 0 mm | 0.89 m/s, 232° | 65 W/m² | - |
| 1778022262 | 15° C | 33% | 1010.1 hPa | 0 mm | 0.45 m/s, 240° | 144 W/m² | - |
| 1778021953 | 14.44° C | 34% | 1010.2 hPa | 0 mm | 0.89 m/s, 229° | 188 W/m² | - |
| 1778021651 | 15° C | 33% | 1009.9 hPa | 0 mm | 0.45 m/s, 234° | 137 W/m² | - |
| 1778021352 | 15° C | 33% | 1010.1 hPa | 0 mm | 0.89 m/s, 258° | 217 W/m² | - |
| 1778021049 | 14.44° C | 35% | 1010 hPa | 0 mm | 0.45 m/s, 234° | 217 W/m² | - |
| 1778020746 | 15° C | 34% | 1009.9 hPa | 0 mm | 0 m/s | 111 W/m² | - |
| 1778020443 | 15° C | 33% | 1010 hPa | 0 mm | 0.89 m/s, 232° | 228 W/m² | - |
| 1778020139 | 15° C | 33% | 1009.8 hPa | 0 mm | 0.45 m/s, 224° | 253 W/m² | - |
| 1778019836 | 15° C | 33% | 1009.9 hPa | 0 mm | 0.45 m/s, 241° | 256 W/m² | - |
| 1778019532 | 15° C | 32% | 1009.8 hPa | 0 mm | 0.89 m/s, 234° | 187 W/m² | - |
| 1778019229 | 15° C | 33% | 1009.8 hPa | 0 mm | 0.89 m/s, 297° | 210 W/m² | - |
* Rain latest hour (hover to see other rain measurements)
** Current wind speed in m/s (hover to see current wind gust speed)